createdAt,value
2018-02-15T00:00:50.296Z,100056
2018-02-15T00:01:55.488Z,100053
2018-02-15T00:03:00.964Z,100047
2018-02-15T00:04:06.450Z,100053
2018-02-15T00:05:11.904Z,100059
2018-02-15T00:06:16.830Z,100050
2018-02-15T00:07:22.413Z,100044
2018-02-15T00:08:27.866Z,100047
2018-02-15T00:09:33.613Z,100047
2018-02-15T00:10:38.819Z,100041
2018-02-15T00:11:43.432Z,100030
2018-02-15T00:12:48.877Z,100027
2018-02-15T00:13:54.360Z,100030
2018-02-15T00:14:59.267Z,100018
2018-02-15T00:16:04.810Z,100021
2018-02-15T00:17:10.049Z,100015
2018-02-15T00:18:15.238Z,100021
2018-02-15T00:19:20.955Z,100012
2018-02-15T00:20:26.133Z,100006
2018-02-15T00:21:32.056Z,100018
2018-02-15T00:22:37.526Z,100009
2018-02-15T00:23:42.429Z,100018
2018-02-15T00:24:47.973Z,100009
2018-02-15T00:25:52.309Z,100021
2018-02-15T00:26:57.783Z,100018
2018-02-15T00:28:03.810Z,100033
2018-02-15T00:29:08.716Z,100027
2018-02-15T00:30:13.887Z,100021
2018-02-15T00:31:19.701Z,100024
2018-02-15T00:32:24.608Z,100024
2018-02-15T00:33:30.102Z,100012
2018-02-15T00:34:35.579Z,100021
2018-02-15T00:35:40.933Z,100006
2018-02-15T00:36:46.231Z,100018
2018-02-15T00:37:50.853Z,100004
2018-02-15T00:38:56.099Z,100009
2018-02-15T00:40:01.652Z,100012
2018-02-15T00:41:07.129Z,100012
2018-02-15T00:42:12.603Z,100024
2018-02-15T00:43:18.496Z,100027
2018-02-15T00:44:23.962Z,100035
2018-02-15T00:45:29.903Z,100038
2018-02-15T00:46:35.368Z,100044
2018-02-15T00:47:40.849Z,100047
2018-02-15T00:48:46.640Z,100041
2018-02-15T00:49:52.150Z,100050
2018-02-15T00:50:57.341Z,100041
2018-02-15T00:52:02.204Z,100047
2018-02-15T00:53:07.702Z,100053
2018-02-15T00:54:12.876Z,100047
2018-02-15T00:55:18.425Z,100038
2018-02-15T00:56:23.896Z,100038
2018-02-15T00:57:29.763Z,100050
2018-02-15T00:58:35.261Z,100038
2018-02-15T00:59:40.731Z,100038
2018-02-15T01:00:46.273Z,100041
2018-02-15T01:01:51.726Z,100053
2018-02-15T01:02:57.183Z,100047
2018-02-15T01:04:02.916Z,100035
2018-02-15T01:05:08.368Z,100044
2018-02-15T01:06:13.285Z,100041
2018-02-15T01:07:19.109Z,100038
2018-02-15T01:08:24.012Z,100035
2018-02-15T01:09:29.647Z,100033
2018-02-15T01:10:34.569Z,100035
2018-02-15T01:11:40.028Z,100041
2018-02-15T01:12:45.773Z,100030
2018-02-15T01:13:51.247Z,100038
2018-02-15T01:14:56.445Z,100035
2018-02-15T01:16:02.172Z,100030
2018-02-15T01:17:07.092Z,100033
2018-02-15T01:18:12.582Z,100021
2018-02-15T01:19:18.068Z,100015
2018-02-15T01:20:23.538Z,100021
2018-02-15T01:21:29.241Z,100009
2018-02-15T01:22:34.729Z,100009
2018-02-15T01:23:40.193Z,100001
2018-02-15T01:24:46.022Z,100001
2018-02-15T01:25:51.467Z,100004
2018-02-15T01:26:56.935Z,99995
2018-02-15T01:28:02.676Z,99995
2018-02-15T01:29:07.865Z,99980
2018-02-15T01:30:12.757Z,99983
2018-02-15T01:31:18.221Z,99989
2018-02-15T01:32:23.421Z,99975
2018-02-15T01:33:28.802Z,99989
2018-02-15T01:34:33.982Z,100001
2018-02-15T01:35:39.484Z,99989
2018-02-15T01:36:44.635Z,99983
2018-02-15T01:37:49.833Z,99989
2018-02-15T01:38:54.735Z,99980
2018-02-15T01:40:00.033Z,99977
2018-02-15T01:41:04.618Z,99975
2018-02-15T01:42:09.822Z,99958
2018-02-15T01:43:15.261Z,99944
2018-02-15T01:44:20.449Z,99969
2018-02-15T01:45:40.429Z,99975
2018-02-15T01:46:45.613Z,99972
2018-02-15T01:47:51.080Z,99980
2018-02-15T01:48:56.375Z,99983
2018-02-15T01:50:01.565Z,99989
2018-02-15T01:51:06.773Z,99986
2018-02-15T01:52:12.412Z,99989
2018-02-15T01:53:17.640Z,99972
2018-02-15T01:54:23.114Z,99969
2018-02-15T01:55:28.498Z,99989
2018-02-15T01:56:33.675Z,99975
2018-02-15T01:57:39.450Z,99969
2018-02-15T01:58:44.376Z,99972
2018-02-15T01:59:49.279Z,99964
2018-02-15T02:00:54.966Z,99967
2018-02-15T02:02:00.438Z,99967
2018-02-15T02:03:04.781Z,99969
2018-02-15T02:04:10.034Z,99967
2018-02-15T02:05:15.500Z,99961
2018-02-15T02:06:20.969Z,99964
2018-02-15T02:07:26.997Z,99949
2018-02-15T02:08:32.457Z,99944
2018-02-15T02:09:37.920Z,99932
2018-02-15T02:10:43.402Z,99926
2018-02-15T02:11:48.581Z,99932
2018-02-15T02:12:54.075Z,99932
2018-02-15T02:13:59.279Z,99915
2018-02-15T02:15:04.207Z,99929
2018-02-15T02:16:09.705Z,99920
2018-02-15T02:17:15.174Z,99926
2018-02-15T02:18:20.361Z,99929
2018-02-15T02:19:40.631Z,99941
2018-02-15T02:20:45.819Z,99929
2018-02-15T02:21:51.276Z,99938
2018-02-15T02:22:56.157Z,99929
2018-02-15T02:24:01.336Z,99923
2018-02-15T02:25:07.105Z,99915
2018-02-15T02:26:12.578Z,99903
2018-02-15T02:27:17.779Z,99917
2018-02-15T02:28:23.800Z,99900
2018-02-15T02:29:29.258Z,99903
2018-02-15T02:30:35.138Z,99888
2018-02-15T02:31:40.033Z,99906
2018-02-15T02:32:45.511Z,99906
2018-02-15T02:33:50.929Z,99906
2018-02-15T02:34:56.412Z,99909
2018-02-15T02:36:01.879Z,99903
2018-02-15T02:37:07.594Z,99909
2018-02-15T02:38:13.116Z,99900
2018-02-15T02:39:18.607Z,99917
2018-02-15T02:40:24.092Z,99912
2018-02-15T02:41:29.286Z,99903
2018-02-15T02:42:35.002Z,99909
2018-02-15T02:43:40.458Z,99906
2018-02-15T02:44:45.639Z,99909
2018-02-15T02:45:51.362Z,99897
2018-02-15T02:46:56.527Z,99906
2018-02-15T02:48:00.893Z,99906
2018-02-15T02:49:06.329Z,99906
2018-02-15T02:50:11.530Z,99900
2018-02-15T02:51:17.008Z,99915
2018-02-15T02:52:22.837Z,99909
2018-02-15T02:53:28.291Z,99894
2018-02-15T02:54:34.031Z,99906
2018-02-15T02:55:39.221Z,99891
2018-02-15T02:56:44.395Z,99885
2018-02-15T02:57:50.118Z,99888
2018-02-15T02:58:55.308Z,99871
2018-02-15T03:00:00.804Z,99888
2018-02-15T03:01:06.356Z,99874
2018-02-15T03:02:11.541Z,99871
2018-02-15T03:03:16.454Z,99862
2018-02-15T03:04:22.163Z,99856
2018-02-15T03:05:27.343Z,99848
2018-02-15T03:06:33.173Z,99848
2018-02-15T03:07:38.361Z,99859
2018-02-15T03:08:43.545Z,99851
2018-02-15T03:09:49.221Z,99856
2018-02-15T03:10:54.126Z,99848
2018-02-15T03:11:59.304Z,99851
2018-02-15T03:13:04.462Z,99859
2018-02-15T03:14:09.640Z,99859
2018-02-15T03:15:15.122Z,99848
2018-02-15T03:16:20.126Z,99854
2018-02-15T03:17:25.304Z,99856
2018-02-15T03:18:31.033Z,99845
2018-02-15T03:19:36.489Z,99842
2018-02-15T03:20:41.420Z,99842
2018-02-15T03:21:47.146Z,99856
2018-02-15T03:22:52.623Z,99851
2018-02-15T03:23:58.105Z,99851
2018-02-15T03:25:03.601Z,99845
2018-02-15T03:26:08.797Z,99845
2018-02-15T03:27:14.003Z,99845
2018-02-15T03:28:19.828Z,99845
2018-02-15T03:29:25.010Z,99848
2018-02-15T03:30:30.475Z,99842
2018-02-15T03:31:35.940Z,99833
2018-02-15T03:32:41.115Z,99836
2018-02-15T03:33:46.650Z,99839
2018-02-15T03:34:52.126Z,99833
2018-02-15T03:35:57.328Z,99836
2018-02-15T03:37:03.269Z,99830
2018-02-15T03:38:08.745Z,99836
2018-02-15T03:39:13.961Z,99827
2018-02-15T03:40:19.393Z,99833
2018-02-15T03:41:25.548Z,99842
2018-02-15T03:42:31.167Z,99817
2018-02-15T03:43:36.644Z,99817
2018-02-15T03:44:42.123Z,99830
2018-02-15T03:45:47.849Z,99811
2018-02-15T03:46:52.751Z,99817
2018-02-15T03:47:58.214Z,99820
2018-02-15T03:49:03.713Z,99827
2018-02-15T03:50:08.312Z,99820
2018-02-15T03:51:13.204Z,99823
2018-02-15T03:52:18.654Z,99808
2018-02-15T03:53:23.831Z,99817
2018-02-15T03:54:28.974Z,99820
2018-02-15T03:55:34.447Z,99820
2018-02-15T03:56:39.720Z,99808
2018-02-15T03:57:45.289Z,99802
2018-02-15T03:58:50.492Z,99808
2018-02-15T03:59:55.684Z,99808
2018-02-15T04:01:00.842Z,99808
2018-02-15T04:02:05.745Z,99802
2018-02-15T04:03:11.211Z,99817
2018-02-15T04:04:16.926Z,99808
2018-02-15T04:05:21.844Z,99811
2018-02-15T04:06:27.707Z,99808
2018-02-15T04:07:33.511Z,99817
2018-02-15T04:08:38.987Z,99820
2018-02-15T04:09:45.116Z,99823
2018-02-15T04:10:50.784Z,99817
2018-02-15T04:11:55.970Z,99823
2018-02-15T04:13:01.796Z,99827
2018-02-15T04:14:06.996Z,99827
2018-02-15T04:15:12.489Z,99820
2018-02-15T04:16:17.986Z,99823
2018-02-15T04:17:23.471Z,99826
2018-02-15T04:18:29.295Z,99826
2018-02-15T04:19:34.759Z,99830
2018-02-15T04:20:39.953Z,99833
2018-02-15T04:21:45.736Z,99827
2018-02-15T04:22:51.204Z,99826
2018-02-15T04:23:56.666Z,99826
2018-02-15T04:25:01.800Z,99839
2018-02-15T04:26:06.987Z,99845
2018-02-15T04:27:11.921Z,99830
2018-02-15T04:28:17.361Z,99836
2018-02-15T04:29:22.850Z,99836
2018-02-15T04:30:28.670Z,99830
2018-02-15T04:31:34.116Z,99830
2018-02-15T04:32:39.309Z,99826
2018-02-15T04:33:45.285Z,99826
2018-02-15T04:34:50.472Z,99830
2018-02-15T04:35:55.973Z,99833
2018-02-15T04:37:01.126Z,99817
2018-02-15T04:38:06.595Z,99811
2018-02-15T04:39:11.497Z,99802
2018-02-15T04:40:17.243Z,99802
2018-02-15T04:41:22.721Z,99808
2018-02-15T04:42:28.157Z,99805
2018-02-15T04:43:33.633Z,99805
2018-02-15T04:44:39.110Z,99811
2018-02-15T04:45:44.565Z,99808
2018-02-15T04:46:50.059Z,99802
2018-02-15T04:47:54.990Z,99820
2018-02-15T04:49:00.459Z,99826
2018-02-15T04:50:05.926Z,99823
2018-02-15T04:51:11.400Z,99820
2018-02-15T04:52:16.870Z,99808
2018-02-15T04:53:22.321Z,99802
2018-02-15T04:54:28.105Z,99794
2018-02-15T04:55:33.577Z,99799
2018-02-15T04:56:39.058Z,99791
2018-02-15T04:57:44.592Z,99802
2018-02-15T04:58:49.779Z,99799
2018-02-15T04:59:55.238Z,99817
2018-02-15T05:01:00.962Z,99823
2018-02-15T05:02:06.420Z,99817
2018-02-15T05:03:11.649Z,99817
2018-02-15T05:04:17.382Z,99820
2018-02-15T05:05:22.880Z,99808
2018-02-15T05:06:28.883Z,99805
2018-02-15T05:07:34.059Z,99827
2018-02-15T05:08:39.531Z,99805
2018-02-15T05:09:44.972Z,99820
2018-02-15T05:10:50.454Z,99830
2018-02-15T05:11:55.626Z,99823
2018-02-15T05:13:01.009Z,99830
2018-02-15T05:14:06.497Z,99827
2018-02-15T05:15:11.674Z,99833
2018-02-15T05:16:17.647Z,99826
2018-02-15T05:17:22.872Z,99826
2018-02-15T05:18:28.407Z,99830
2018-02-15T05:19:33.281Z,99820
2018-02-15T05:20:38.465Z,99830
2018-02-15T05:21:43.710Z,99827
2018-02-15T05:22:49.164Z,99823
2018-02-15T05:23:54.335Z,99827
2018-02-15T05:25:00.223Z,99820
2018-02-15T05:26:05.121Z,99827
2018-02-15T05:27:10.294Z,99811
2018-02-15T05:28:15.765Z,99817
2018-02-15T05:29:20.952Z,99817
2018-02-15T05:30:40.738Z,99805
2018-02-15T05:31:45.704Z,99817
2018-02-15T05:32:51.072Z,99808
2018-02-15T05:33:56.110Z,99799
2018-02-15T05:35:01.280Z,99805
2018-02-15T05:36:06.752Z,99802
2018-02-15T05:37:12.479Z,99799
2018-02-15T05:38:17.686Z,99796
2018-02-15T05:39:22.878Z,99791
2018-02-15T05:40:43.173Z,99799
2018-02-15T05:41:48.380Z,99794
2018-02-15T05:42:53.806Z,99802
2018-02-15T05:43:59.299Z,99788
2018-02-15T05:45:04.241Z,99783
2018-02-15T05:46:09.502Z,99783
2018-02-15T05:47:14.980Z,99788
2018-02-15T05:48:19.600Z,99783
2018-02-15T05:49:25.086Z,99786
2018-02-15T05:50:30.555Z,99786
2018-02-15T05:51:36.518Z,99791
2018-02-15T05:52:41.717Z,99802
2018-02-15T05:53:47.199Z,99796
2018-02-15T05:54:53.019Z,99802
2018-02-15T05:55:58.528Z,99788
2018-02-15T05:57:03.726Z,99780
2018-02-15T05:58:09.192Z,99788
2018-02-15T05:59:14.665Z,99777
2018-02-15T06:00:20.154Z,99768
2018-02-15T06:01:25.724Z,99774
2018-02-15T06:02:30.911Z,99771
2018-02-15T06:03:36.787Z,99766
2018-02-15T06:04:42.250Z,99768
2018-02-15T06:05:47.424Z,99771
2018-02-15T06:06:52.915Z,99777
2018-02-15T06:07:57.809Z,99780
2018-02-15T06:09:03.000Z,99780
2018-02-15T06:10:07.931Z,99771
2018-02-15T06:11:13.042Z,99777
2018-02-15T06:12:18.228Z,99774
2018-02-15T06:13:24.158Z,99783
2018-02-15T06:14:29.350Z,99786
2018-02-15T06:15:35.103Z,99783
2018-02-15T06:16:40.568Z,99783
2018-02-15T06:17:45.773Z,99774
2018-02-15T06:18:51.690Z,99783
2018-02-15T06:19:56.874Z,99780
2018-02-15T06:21:02.340Z,99774
2018-02-15T06:22:08.228Z,99780
2018-02-15T06:23:13.405Z,99774
2018-02-15T06:24:18.863Z,99777
2018-02-15T06:25:24.661Z,99777
2018-02-15T06:26:30.325Z,99777
2018-02-15T06:27:35.767Z,99774
2018-02-15T06:28:40.936Z,99763
2018-02-15T06:29:46.180Z,99771
2018-02-15T06:30:51.621Z,99763
2018-02-15T06:31:57.094Z,99768
2018-02-15T06:33:02.282Z,99757
2018-02-15T06:34:07.758Z,99763
2018-02-15T06:35:13.233Z,99754
2018-02-15T06:36:18.170Z,99760
2018-02-15T06:37:23.961Z,99763
2018-02-15T06:38:29.423Z,99766
2018-02-15T06:39:35.052Z,99771
2018-02-15T06:40:40.232Z,99760
2018-02-15T06:41:46.142Z,99771
2018-02-15T06:42:51.693Z,99763
2018-02-15T06:43:57.111Z,99766
2018-02-15T06:45:02.032Z,99754
2018-02-15T06:46:07.492Z,99763
2018-02-15T06:47:12.410Z,99763
2018-02-15T06:48:17.880Z,99783
2018-02-15T06:49:23.430Z,99763
2018-02-15T06:50:28.335Z,99768
2018-02-15T06:51:34.234Z,99757
2018-02-15T06:52:39.701Z,99760
2018-02-15T06:53:44.303Z,99760
2018-02-15T06:54:50.125Z,99768
2018-02-15T06:55:55.321Z,99774
2018-02-15T06:57:00.243Z,99771
2018-02-15T06:58:05.725Z,99763
2018-02-15T06:59:11.209Z,99768
2018-02-15T07:00:16.385Z,99768
2018-02-15T07:01:22.090Z,99771
2018-02-15T07:02:27.589Z,99760
2018-02-15T07:03:33.695Z,99766
2018-02-15T07:04:39.186Z,99768
2018-02-15T07:05:44.649Z,99763
2018-02-15T07:06:50.414Z,99766
2018-02-15T07:07:55.899Z,99774
2018-02-15T07:09:01.349Z,99768
2018-02-15T07:10:07.123Z,99757
2018-02-15T07:11:12.015Z,99763
2018-02-15T07:12:16.908Z,99760
2018-02-15T07:13:22.152Z,99754
2018-02-15T07:14:27.551Z,99766
2018-02-15T07:15:32.910Z,99748
2018-02-15T07:16:38.104Z,99754
2018-02-15T07:17:43.013Z,99737
2018-02-15T07:18:48.162Z,99739
2018-02-15T07:19:53.629Z,99737
2018-02-15T07:20:58.816Z,99728
2018-02-15T07:22:03.978Z,99725
2018-02-15T07:23:09.359Z,99710
2018-02-15T07:24:14.533Z,99728
2018-02-15T07:25:20.256Z,99722
2018-02-15T07:26:25.740Z,99719
2018-02-15T07:27:30.805Z,99722
2018-02-15T07:28:36.264Z,99716
2018-02-15T07:29:41.757Z,99713
2018-02-15T07:30:47.482Z,99713
2018-02-15T07:31:52.962Z,99713
2018-02-15T07:32:58.148Z,99719
2018-02-15T07:34:03.940Z,99716
2018-02-15T07:35:09.440Z,99705
2018-02-15T07:36:14.368Z,99728
2018-02-15T07:37:19.931Z,99719
2018-02-15T07:38:24.824Z,99716
2018-02-15T07:39:30.193Z,99716
2018-02-15T07:40:35.376Z,99710
2018-02-15T07:41:40.560Z,99708
2018-02-15T07:42:46.279Z,99705
2018-02-15T07:43:51.742Z,99696
2018-02-15T07:44:57.422Z,99713
2018-02-15T07:46:02.842Z,99705
2018-02-15T07:47:08.306Z,99702
2018-02-15T07:48:13.981Z,99702
2018-02-15T07:49:19.243Z,99693
2018-02-15T07:50:24.448Z,99705
2018-02-15T07:51:30.087Z,99702
2018-02-15T07:52:35.590Z,99690
2018-02-15T07:53:40.500Z,99713
2018-02-15T07:54:46.231Z,99687
2018-02-15T07:55:51.703Z,99708
2018-02-15T07:56:57.171Z,99705
2018-02-15T07:58:02.087Z,99702
2018-02-15T07:59:06.716Z,99690
2018-02-15T08:00:12.396Z,99702
2018-02-15T08:01:18.261Z,99693
2018-02-15T08:02:23.449Z,99699
2018-02-15T08:03:29.269Z,99705
2018-02-15T08:04:34.731Z,99705
2018-02-15T08:05:39.933Z,99696
2018-02-15T08:06:45.655Z,99696
2018-02-15T08:07:50.832Z,99696
2018-02-15T08:08:56.306Z,99702
2018-02-15T08:10:02.040Z,99705
2018-02-15T08:11:07.231Z,99702
2018-02-15T08:12:12.426Z,99702
2018-02-15T08:13:18.177Z,99702
2018-02-15T08:14:23.385Z,99699
2018-02-15T08:15:28.238Z,99699
2018-02-15T08:16:33.706Z,99710
2018-02-15T08:17:39.026Z,99705
2018-02-15T08:18:44.771Z,99713
2018-02-15T08:19:49.947Z,99702
2018-02-15T08:20:55.571Z,99719
2018-02-15T08:22:00.763Z,99716
2018-02-15T08:23:05.667Z,99710
2018-02-15T08:24:10.774Z,99716
2018-02-15T08:25:16.530Z,99693
2018-02-15T08:26:21.423Z,99696
2018-02-15T08:27:27.160Z,99687
2018-02-15T08:28:32.623Z,99708
2018-02-15T08:29:38.088Z,99702
2018-02-15T08:30:43.816Z,99716
2018-02-15T08:31:48.992Z,99708
2018-02-15T08:32:54.186Z,99708
2018-02-15T08:33:59.727Z,99705
2018-02-15T08:35:04.630Z,99699
2018-02-15T08:36:10.288Z,99705
2018-02-15T08:37:16.010Z,99696
2018-02-15T08:38:21.508Z,99702
2018-02-15T08:39:27.535Z,99710
2018-02-15T08:40:32.999Z,99708
2018-02-15T08:41:38.434Z,99710
2018-02-15T08:42:44.138Z,99702
2018-02-15T08:43:49.620Z,99705
2018-02-15T08:44:54.517Z,99708
2018-02-15T08:46:00.408Z,99705
2018-02-15T08:47:05.314Z,99710
2018-02-15T08:48:10.472Z,99705
2018-02-15T08:49:15.669Z,99699
2018-02-15T08:50:21.153Z,99693
2018-02-15T08:51:26.687Z,99699
2018-02-15T08:52:31.624Z,99699
2018-02-15T08:53:37.100Z,99693
2018-02-15T08:54:42.823Z,99710
2018-02-15T08:55:48.038Z,99693
2018-02-15T08:56:53.719Z,99705
2018-02-15T08:57:59.183Z,99693
2018-02-15T08:59:03.800Z,99696
2018-02-15T09:00:09.481Z,99705
2018-02-15T09:01:15.284Z,99708
2018-02-15T09:02:20.464Z,99719
2018-02-15T09:03:26.180Z,99719
2018-02-15T09:04:31.643Z,99722
2018-02-15T09:05:37.104Z,99716
2018-02-15T09:06:42.689Z,99708
2018-02-15T09:07:47.575Z,99716
2018-02-15T09:08:52.473Z,99713
2018-02-15T09:09:58.171Z,99719
2018-02-15T09:11:03.849Z,99722
2018-02-15T09:12:09.264Z,99707
2018-02-15T09:13:15.027Z,99708
2018-02-15T09:14:20.484Z,99705
2018-02-15T09:15:26.386Z,99708
2018-02-15T09:16:31.838Z,99710
2018-02-15T09:17:37.337Z,99705
2018-02-15T09:18:42.777Z,99710
2018-02-15T09:19:48.442Z,99702
2018-02-15T09:20:53.959Z,99705
2018-02-15T09:21:59.113Z,99705
2018-02-15T09:23:03.727Z,99693
2018-02-15T09:24:08.917Z,99705
2018-02-15T09:25:14.063Z,99705
2018-02-15T09:26:19.242Z,99699
2018-02-15T09:27:39.331Z,99707
2018-02-15T09:28:44.707Z,99699
2018-02-15T09:29:49.601Z,99705
2018-02-15T09:30:55.492Z,99716
2018-02-15T09:32:00.731Z,99710
2018-02-15T09:33:05.641Z,99702
2018-02-15T09:34:10.624Z,99702
2018-02-15T09:35:16.287Z,99702
2018-02-15T09:36:21.475Z,99707
2018-02-15T09:37:27.438Z,99710
2018-02-15T09:38:32.635Z,99710
2018-02-15T09:39:38.069Z,99707
2018-02-15T09:40:43.545Z,99702
2018-02-15T09:41:49.017Z,99696
2018-02-15T09:42:54.218Z,99699
2018-02-15T09:43:59.448Z,99702
2018-02-15T09:45:03.810Z,99699
2018-02-15T09:46:08.723Z,99690
2018-02-15T09:47:13.839Z,99702
2018-02-15T09:48:19.301Z,99687
2018-02-15T09:49:24.463Z,99687
2018-02-15T09:50:29.347Z,99684
2018-02-15T09:51:35.319Z,99696
2018-02-15T09:52:40.497Z,99696
2018-02-15T09:53:46.027Z,99687
2018-02-15T09:54:51.745Z,99702
2018-02-15T09:55:57.131Z,99707
2018-02-15T09:57:01.485Z,99699
2018-02-15T09:58:06.391Z,99699
2018-02-15T09:59:11.570Z,99699
2018-02-15T10:00:16.817Z,99707
2018-02-15T10:01:22.000Z,99699
2018-02-15T10:02:27.210Z,99705
2018-02-15T10:03:32.713Z,99699
2018-02-15T10:04:37.887Z,99699
2018-02-15T10:05:43.719Z,99702
2018-02-15T10:06:49.268Z,99702
2018-02-15T10:07:54.482Z,99707
2018-02-15T10:08:59.652Z,99710
2018-02-15T10:10:05.394Z,99716
2018-02-15T10:11:10.588Z,99710
2018-02-15T10:12:15.800Z,99710
2018-02-15T10:13:20.960Z,99705
2018-02-15T10:14:26.123Z,99710
2018-02-15T10:15:31.866Z,99725
2018-02-15T10:16:37.062Z,99719
2018-02-15T10:17:42.565Z,99716
2018-02-15T10:18:47.993Z,99716
2018-02-15T10:19:52.902Z,99702
2018-02-15T10:20:58.391Z,99707
2018-02-15T10:22:03.557Z,99699
2018-02-15T10:23:08.781Z,99699
2018-02-15T10:24:14.276Z,99699
2018-02-15T10:25:19.390Z,99699
2018-02-15T10:26:24.590Z,99687
2018-02-15T10:27:29.840Z,99693
2018-02-15T10:28:35.327Z,99690
2018-02-15T10:29:40.233Z,99690
2018-02-15T10:30:45.954Z,99693
2018-02-15T10:31:51.452Z,99670
2018-02-15T10:32:56.637Z,99676
2018-02-15T10:34:01.257Z,99678
2018-02-15T10:35:06.768Z,99681
2018-02-15T10:36:11.977Z,99676
2018-02-15T10:37:17.288Z,99670
2018-02-15T10:38:21.345Z,99681
2018-02-15T10:39:26.787Z,99670
2018-02-15T10:40:32.487Z,99658
2018-02-15T10:41:37.681Z,99678
2018-02-15T10:42:43.405Z,99667
2018-02-15T10:43:48.604Z,99670
2018-02-15T10:44:54.069Z,99661
2018-02-15T10:45:59.280Z,99670
2018-02-15T10:47:04.193Z,99667
2018-02-15T10:48:09.381Z,99664
2018-02-15T10:49:14.800Z,99667
2018-02-15T10:50:20.474Z,99655
2018-02-15T10:51:40.576Z,99655
2018-02-15T10:52:46.057Z,99649
2018-02-15T10:53:51.235Z,99667
2018-02-15T10:54:56.785Z,99647
2018-02-15T10:56:02.257Z,99649
2018-02-15T10:57:07.740Z,99658
2018-02-15T10:58:13.455Z,99661
2018-02-15T10:59:18.928Z,99647
2018-02-15T11:00:24.126Z,99658
2018-02-15T11:01:44.695Z,99658
2018-02-15T11:02:49.975Z,99652
2018-02-15T11:03:56.047Z,99645
2018-02-15T11:05:00.962Z,99642
2018-02-15T11:06:06.433Z,99636
2018-02-15T11:07:12.170Z,99642
2018-02-15T11:08:17.652Z,99647
2018-02-15T11:09:23.323Z,99642
2018-02-15T11:10:43.903Z,99642
2018-02-15T11:11:48.259Z,99647
2018-02-15T11:12:54.012Z,99642
2018-02-15T11:13:58.920Z,99642
2018-02-15T11:15:03.804Z,99636
2018-02-15T11:16:09.073Z,99642
2018-02-15T11:17:13.690Z,99649
2018-02-15T11:18:18.883Z,99647
2018-02-15T11:19:24.614Z,99649
2018-02-15T11:20:29.531Z,99649
2018-02-15T11:21:35.350Z,99652
2018-02-15T11:22:40.951Z,99664
2018-02-15T11:23:46.147Z,99658
2018-02-15T11:24:51.297Z,99667
2018-02-15T11:25:56.208Z,99658
2018-02-15T11:27:01.021Z,99652
2018-02-15T11:28:06.197Z,99655
2018-02-15T11:29:11.369Z,99658
2018-02-15T11:30:16.564Z,99664
2018-02-15T11:31:21.772Z,99664
2018-02-15T11:32:27.442Z,99664
2018-02-15T11:33:33.414Z,99655
2018-02-15T11:34:38.329Z,99670
2018-02-15T11:35:43.516Z,99676
2018-02-15T11:36:49.216Z,99673
2018-02-15T11:37:54.425Z,99667
2018-02-15T11:38:59.599Z,99673
2018-02-15T11:40:05.335Z,99681
2018-02-15T11:41:10.525Z,99676
2018-02-15T11:42:15.753Z,99661
2018-02-15T11:43:21.214Z,99681
2018-02-15T11:44:26.386Z,99678
2018-02-15T11:45:31.810Z,99670
2018-02-15T11:46:37.276Z,99678
2018-02-15T11:47:42.209Z,99667
2018-02-15T11:48:47.485Z,99678
2018-02-15T11:49:52.995Z,99658
2018-02-15T11:50:57.604Z,99670
2018-02-15T11:52:03.317Z,99658
2018-02-15T11:53:08.516Z,99670
2018-02-15T11:54:13.899Z,99684
2018-02-15T11:55:19.166Z,99681
2018-02-15T11:56:24.699Z,99676
2018-02-15T11:57:30.131Z,99673
2018-02-15T11:58:35.024Z,99687
2018-02-15T11:59:40.490Z,99676
2018-02-15T12:00:46.320Z,99681
2018-02-15T12:01:50.940Z,99678
2018-02-15T12:02:55.835Z,99681
2018-02-15T12:04:01.272Z,99678
2018-02-15T12:05:06.450Z,99684
2018-02-15T12:06:11.634Z,99681
2018-02-15T12:07:17.141Z,99681
2018-02-15T12:08:22.621Z,99684
2018-02-15T12:09:28.064Z,99681
2018-02-15T12:10:33.248Z,99681
2018-02-15T12:11:38.450Z,99681
2018-02-15T12:12:43.603Z,99678
2018-02-15T12:13:49.073Z,99678
2018-02-15T12:14:54.547Z,99673
2018-02-15T12:15:59.774Z,99676
2018-02-15T12:17:04.971Z,99673
2018-02-15T12:18:10.224Z,99670
2018-02-15T12:19:15.660Z,99676
2018-02-15T12:20:21.463Z,99676
2018-02-15T12:21:26.648Z,99676
2018-02-15T12:22:31.861Z,99676
2018-02-15T12:23:37.205Z,99664
2018-02-15T12:24:42.629Z,99664
2018-02-15T12:25:47.826Z,99661
2018-02-15T12:26:53.023Z,99658
2018-02-15T12:27:58.446Z,99658
2018-02-15T12:29:03.914Z,99647
2018-02-15T12:30:09.380Z,99664
2018-02-15T12:31:14.834Z,99667
2018-02-15T12:32:20.289Z,99655
2018-02-15T12:33:40.070Z,99661
2018-02-15T12:34:45.257Z,99658
2018-02-15T12:35:50.181Z,99658
2018-02-15T12:36:55.638Z,99667
2018-02-15T12:38:01.125Z,99676
2018-02-15T12:39:06.326Z,99664
2018-02-15T12:40:12.048Z,99661
2018-02-15T12:41:16.978Z,99655
2018-02-15T12:42:21.914Z,99658
2018-02-15T12:43:27.340Z,99661
2018-02-15T12:44:32.810Z,99655
2018-02-15T12:45:38.089Z,99652
2018-02-15T12:46:43.554Z,99661
2018-02-15T12:47:48.758Z,99658
2018-02-15T12:48:54.200Z,99658
2018-02-15T12:49:59.382Z,99655
2018-02-15T12:51:04.290Z,99655
2018-02-15T12:52:10.061Z,99652
2018-02-15T12:53:15.249Z,99649
2018-02-15T12:54:19.890Z,99658
2018-02-15T12:55:40.198Z,99661
2018-02-15T12:56:45.395Z,99661
2018-02-15T12:57:50.857Z,99658
2018-02-15T12:58:56.343Z,99667
2018-02-15T13:00:01.733Z,99655
2018-02-15T13:01:06.583Z,99664
2018-02-15T13:02:11.795Z,99664
2018-02-15T13:03:16.976Z,99649
2018-02-15T13:04:22.684Z,99649
2018-02-15T13:05:28.066Z,99649
2018-02-15T13:06:33.795Z,99645
2018-02-15T13:07:39.254Z,99649
2018-02-15T13:08:44.911Z,99642
2018-02-15T13:09:50.822Z,99627
2018-02-15T13:10:56.312Z,99627
2018-02-15T13:12:01.491Z,99630
2018-02-15T13:13:06.392Z,99618
2018-02-15T13:14:11.859Z,99627
2018-02-15T13:15:17.058Z,99621
2018-02-15T13:16:22.496Z,99624
2018-02-15T13:17:27.596Z,99610
2018-02-15T13:18:33.028Z,99616
2018-02-15T13:19:38.218Z,99616
2018-02-15T13:20:43.692Z,99618
2018-02-15T13:21:49.506Z,99621
2018-02-15T13:22:55.497Z,99613
2018-02-15T13:24:00.674Z,99613
2018-02-15T13:25:05.470Z,99618
2018-02-15T13:26:10.389Z,99633
2018-02-15T13:27:15.571Z,99624
2018-02-15T13:28:21.184Z,99627
2018-02-15T13:29:26.707Z,99630
2018-02-15T13:30:32.262Z,99627
2018-02-15T13:31:37.728Z,99633
2018-02-15T13:32:43.208Z,99633
2018-02-15T13:33:49.134Z,99636
2018-02-15T13:34:54.598Z,99621
2018-02-15T13:36:00.270Z,99633
2018-02-15T13:37:04.573Z,99630
2018-02-15T13:38:09.456Z,99633
2018-02-15T13:39:14.941Z,99645
2018-02-15T13:40:20.389Z,99633
2018-02-15T13:41:25.886Z,99627
2018-02-15T13:42:31.354Z,99621
2018-02-15T13:43:36.555Z,99633
2018-02-15T13:44:41.754Z,99633
2018-02-15T13:45:47.529Z,99639
2018-02-15T13:46:51.871Z,99633
2018-02-15T13:47:57.508Z,99647
2018-02-15T13:49:02.997Z,99639
2018-02-15T13:50:08.502Z,99647
2018-02-15T13:51:13.977Z,99645
2018-02-15T13:52:19.710Z,99639
2018-02-15T13:53:25.163Z,99649
2018-02-15T13:54:30.334Z,99639
2018-02-15T13:55:35.224Z,99642
2018-02-15T13:56:40.431Z,99649
2018-02-15T13:57:45.921Z,99645
2018-02-15T13:58:50.837Z,99649
2018-02-15T13:59:55.482Z,99652
2018-02-15T14:01:01.330Z,99647
2018-02-15T14:02:06.539Z,99639